createdAt,value
2019-02-18T00:01:18.037Z,5.50
2019-02-18T00:03:47.965Z,5.50
2019-02-18T00:06:17.387Z,5.40
2019-02-18T00:08:50.447Z,5.40
2019-02-18T00:11:22.455Z,5.40
2019-02-18T00:13:52.545Z,5.40
2019-02-18T00:16:22.036Z,5.40
2019-02-18T00:18:54.158Z,5.30
2019-02-18T00:21:23.928Z,5.30
2019-02-18T00:23:55.308Z,5.30
2019-02-18T00:26:25.029Z,5.30
2019-02-18T00:28:55.655Z,5.30
2019-02-18T00:31:25.317Z,5.30
2019-02-18T00:33:57.427Z,5.30
2019-02-18T00:36:27.177Z,5.20
2019-02-18T00:38:56.699Z,5.20
2019-02-18T00:41:26.366Z,5.20
2019-02-18T00:43:55.726Z,5.20
2019-02-18T00:46:26.289Z,5.10
2019-02-18T00:48:57.180Z,5.10
2019-02-18T00:51:26.690Z,5.10
2019-02-18T00:53:56.582Z,5.10
2019-02-18T00:56:27.717Z,5.00
2019-02-18T00:58:57.395Z,5.10
2019-02-18T01:01:26.870Z,5.10
2019-02-18T01:03:56.199Z,5.00
2019-02-18T01:06:25.433Z,5.00
2019-02-18T01:08:54.504Z,4.90
2019-02-18T01:11:25.018Z,5.00
2019-02-18T01:13:55.186Z,4.90
2019-02-18T01:16:24.632Z,4.90
2019-02-18T01:18:57.661Z,4.90
2019-02-18T01:21:27.126Z,4.90
2019-02-18T01:23:56.529Z,4.80
2019-02-18T01:26:25.907Z,4.80
2019-02-18T01:28:55.226Z,4.80
2019-02-18T01:31:27.399Z,4.80
2019-02-18T01:33:56.797Z,4.70
2019-02-18T01:36:26.333Z,4.70
2019-02-18T01:39:10.583Z,4.70
2019-02-18T01:41:39.684Z,4.70
2019-02-18T01:44:09.380Z,4.70
2019-02-18T01:46:39.202Z,4.70
2019-02-18T01:49:09.713Z,4.70
2019-02-18T01:51:39.316Z,4.60
2019-02-18T01:54:10.979Z,4.60
2019-02-18T01:56:40.487Z,4.60
2019-02-18T01:59:10.225Z,4.60
2019-02-18T02:01:42.032Z,4.50
2019-02-18T02:04:11.681Z,4.50
2019-02-18T02:06:41.232Z,4.40
2019-02-18T02:09:13.163Z,4.50
2019-02-18T02:11:42.507Z,4.40
2019-02-18T02:14:12.727Z,4.40
2019-02-18T02:16:44.317Z,4.40
2019-02-18T02:19:15.246Z,4.30
2019-02-18T02:21:45.983Z,4.30
2019-02-18T02:24:16.081Z,4.30
2019-02-18T02:26:46.809Z,4.20
2019-02-18T02:29:18.078Z,4.20
2019-02-18T02:31:47.124Z,4.10
2019-02-18T02:34:16.506Z,4.10
2019-02-18T02:36:45.841Z,4.10
2019-02-18T02:39:15.410Z,4.10
2019-02-18T02:41:48.251Z,4.00
2019-02-18T02:44:18.110Z,4.00
2019-02-18T02:46:47.826Z,4.00
2019-02-18T02:49:17.523Z,3.90
2019-02-18T02:51:46.985Z,3.90
2019-02-18T02:54:16.719Z,3.90
2019-02-18T02:56:45.776Z,3.80
2019-02-18T02:59:15.325Z,3.80
2019-02-18T03:01:44.462Z,3.80
2019-02-18T03:04:14.065Z,3.80
2019-02-18T03:06:43.451Z,3.70
2019-02-18T03:09:13.443Z,3.80
2019-02-18T03:11:42.809Z,3.70
2019-02-18T03:14:14.641Z,3.80
2019-02-18T03:16:44.009Z,3.80
2019-02-18T03:19:13.672Z,3.70
2019-02-18T03:21:45.455Z,3.60
2019-02-18T03:24:17.327Z,3.50
2019-02-18T03:26:47.289Z,3.60
2019-02-18T03:29:53.865Z,3.60
2019-02-18T03:32:23.452Z,3.50
2019-02-18T03:34:53.750Z,3.50
2019-02-18T03:37:23.867Z,3.40
2019-02-18T03:39:53.177Z,3.50
2019-02-18T03:42:23.408Z,3.50
2019-02-18T03:44:53.221Z,3.50
2019-02-18T03:47:24.800Z,3.40
2019-02-18T03:49:54.792Z,3.40
2019-02-18T03:52:24.784Z,3.30
2019-02-18T03:54:54.252Z,3.30
2019-02-18T03:57:25.780Z,3.30
2019-02-18T03:59:55.770Z,3.30
2019-02-18T04:02:27.022Z,3.30
2019-02-18T04:04:57.325Z,3.30
2019-02-18T04:07:27.358Z,3.30
2019-02-18T04:09:56.465Z,3.30
2019-02-18T04:12:26.382Z,3.30
2019-02-18T04:14:56.597Z,3.30
2019-02-18T04:17:26.640Z,3.20
2019-02-18T04:19:56.542Z,3.20
2019-02-18T04:22:26.182Z,3.20
2019-02-18T04:24:56.350Z,3.20
2019-02-18T04:27:26.993Z,3.20
2019-02-18T04:29:56.180Z,3.20
2019-02-18T04:32:27.186Z,3.10
2019-02-18T04:34:56.757Z,3.10
2019-02-18T04:37:25.840Z,3.10
2019-02-18T04:39:55.377Z,3.10
2019-02-18T04:42:25.302Z,3.10
2019-02-18T04:44:55.301Z,3.10
2019-02-18T04:47:25.013Z,3.10
2019-02-18T04:49:54.631Z,3.10
2019-02-18T04:52:24.141Z,3.10
2019-02-18T04:54:55.787Z,3.20
2019-02-18T04:57:25.207Z,3.10
2019-02-18T04:59:55.137Z,3.10
2019-02-18T05:02:25.714Z,3.10
2019-02-18T05:04:55.135Z,3.00
2019-02-18T05:07:26.849Z,3.00
2019-02-18T05:09:57.181Z,3.00
2019-02-18T05:12:26.437Z,3.00
2019-02-18T05:14:55.605Z,3.00
2019-02-18T05:17:25.157Z,2.90
2019-02-18T05:19:54.818Z,3.00
2019-02-18T05:22:25.862Z,3.00
2019-02-18T05:24:55.601Z,3.00
2019-02-18T05:27:33.206Z,3.10
2019-02-18T05:30:00.876Z,3.10
2019-02-18T05:32:30.853Z,3.00
2019-02-18T05:35:00.504Z,3.00
2019-02-18T05:37:31.589Z,3.00
2019-02-18T05:40:00.850Z,3.00
2019-02-18T05:42:31.423Z,3.10
2019-02-18T05:45:01.152Z,3.10
2019-02-18T05:47:34.111Z,3.10
2019-02-18T05:50:03.562Z,3.20
2019-02-18T05:52:33.363Z,3.10
2019-02-18T05:55:02.683Z,3.10
2019-02-18T05:57:32.349Z,3.00
2019-02-18T06:00:06.049Z,3.00
2019-02-18T06:02:37.585Z,3.00
2019-02-18T06:05:07.811Z,3.00
2019-02-18T06:07:38.791Z,3.00
2019-02-18T06:10:10.771Z,3.00
2019-02-18T06:12:44.863Z,3.00
2019-02-18T06:15:15.384Z,2.90
2019-02-18T06:17:45.134Z,2.90
2019-02-18T06:20:17.844Z,2.90
2019-02-18T06:22:47.742Z,2.90
2019-02-18T06:25:17.492Z,2.90
2019-02-18T06:27:48.663Z,2.90
2019-02-18T06:30:20.599Z,2.90
2019-02-18T06:32:50.160Z,2.90
2019-02-18T06:35:20.028Z,2.90
2019-02-18T06:37:49.851Z,2.90
2019-02-18T06:40:19.363Z,3.00
2019-02-18T06:42:49.243Z,3.10
2019-02-18T06:45:40.317Z,3.10
2019-02-18T06:48:24.221Z,3.20
2019-02-18T06:50:55.695Z,3.20
2019-02-18T06:53:27.994Z,3.20
2019-02-18T06:55:58.683Z,3.20
2019-02-18T06:58:38.619Z,3.30
2019-02-18T07:01:27.174Z,3.40
2019-02-18T07:04:10.300Z,3.50
2019-02-18T07:06:55.174Z,3.50
2019-02-18T07:09:51.737Z,3.60
2019-02-18T07:12:28.868Z,3.60
2019-02-18T07:14:58.963Z,3.70
2019-02-18T07:17:29.342Z,3.80
2019-02-18T07:20:00.031Z,3.80
2019-02-18T07:23:24.854Z,3.90
2019-02-18T07:29:45.939Z,4.00
2019-02-18T07:32:12.809Z,4.10
2019-02-18T07:34:45.294Z,4.10
2019-02-18T07:37:14.741Z,4.20
2019-02-18T07:39:46.237Z,4.20
2019-02-18T07:42:15.959Z,4.30
2019-02-18T07:44:45.855Z,4.40
2019-02-18T07:47:15.654Z,4.40
2019-02-18T07:49:47.413Z,4.50
2019-02-18T07:52:17.206Z,4.50
2019-02-18T07:54:46.915Z,4.60
2019-02-18T07:57:16.830Z,4.70
2019-02-18T08:00:10.406Z,4.80
2019-02-18T08:02:40.418Z,4.90
2019-02-18T08:05:12.159Z,4.90
2019-02-18T08:07:42.102Z,4.90
2019-02-18T08:10:12.587Z,5.00
2019-02-18T08:12:46.671Z,5.00
2019-02-18T08:15:15.770Z,5.10
2019-02-18T08:17:45.601Z,5.10
2019-02-18T08:20:15.093Z,5.20
2019-02-18T08:22:45.612Z,5.30
2019-02-18T08:25:35.545Z,5.40
2019-02-18T08:28:04.799Z,5.40
2019-02-18T08:30:34.813Z,5.60
2019-02-18T08:33:04.392Z,5.70
2019-02-18T08:35:35.631Z,5.70
2019-02-18T08:38:05.028Z,5.80
2019-02-18T08:40:35.191Z,6.00
2019-02-18T08:43:15.106Z,6.40
2019-02-18T08:45:49.425Z,7.20
2019-02-18T08:48:19.310Z,8.40
2019-02-18T08:50:48.786Z,9.70
2019-02-18T08:53:18.469Z,10.80
2019-02-18T08:55:48.602Z,11.50
2019-02-18T08:58:19.894Z,11.90
2019-02-18T09:00:49.815Z,12.20
2019-02-18T09:03:19.053Z,12.60
2019-02-18T09:05:50.741Z,13.20
2019-02-18T09:08:22.817Z,13.70
2019-02-18T09:10:52.166Z,14.00
2019-02-18T09:13:21.443Z,14.90
2019-02-18T09:15:59.826Z,15.00
2019-02-18T09:18:21.808Z,15.40
2019-02-18T09:20:53.778Z,16.30
2019-02-18T09:23:41.301Z,16.90
2019-02-18T09:26:11.838Z,17.70
2019-02-18T09:28:41.927Z,18.60
2019-02-18T09:31:11.495Z,19.30
2019-02-18T09:33:43.514Z,20.30
2019-02-18T09:36:13.189Z,20.90
2019-02-18T09:38:45.875Z,20.60
2019-02-18T09:41:15.636Z,22.70
2019-02-18T09:43:45.208Z,22.90
2019-02-18T09:46:14.553Z,23.00
2019-02-18T09:48:48.125Z,24.00
2019-02-18T09:51:21.475Z,24.80
2019-02-18T09:53:52.963Z,26.00
2019-02-18T09:56:32.452Z,26.50
2019-02-18T09:59:02.528Z,25.90
2019-02-18T10:01:34.052Z,26.90
2019-02-18T10:04:05.089Z,28.50
2019-02-18T10:06:36.590Z,28.80
2019-02-18T10:09:10.595Z,28.80
2019-02-18T10:11:44.801Z,29.70
2019-02-18T10:14:15.919Z,31.10
2019-02-18T10:16:49.085Z,31.60
2019-02-18T10:19:19.338Z,31.90
2019-02-18T10:21:49.802Z,32.10
2019-02-18T10:24:23.486Z,32.10
2019-02-18T10:26:54.962Z,32.30
2019-02-18T10:29:28.071Z,31.70
2019-02-18T10:32:02.655Z,31.50
2019-02-18T10:34:34.878Z,31.00
2019-02-18T10:37:07.923Z,30.80
2019-02-18T10:39:37.915Z,30.10
2019-02-18T10:42:08.058Z,29.10
2019-02-18T10:44:42.002Z,27.90
2019-02-18T10:47:17.487Z,25.00
2019-02-18T10:49:50.747Z,21.80
2019-02-18T10:52:24.145Z,20.00
2019-02-18T10:54:57.283Z,18.50
2019-02-18T10:57:27.453Z,17.30
2019-02-18T10:59:59.787Z,16.50
2019-02-18T11:02:34.103Z,15.70
2019-02-18T11:05:05.286Z,14.80
2019-02-18T11:07:36.463Z,14.10
2019-02-18T11:10:14.464Z,13.90
2019-02-18T11:12:50.949Z,13.90
2019-02-18T11:15:21.190Z,13.60
2019-02-18T11:17:55.425Z,13.60
2019-02-18T11:20:27.630Z,13.20
2019-02-18T11:22:58.538Z,13.10
2019-02-18T11:25:32.579Z,13.10
2019-02-18T11:28:04.915Z,13.00
2019-02-18T11:30:36.201Z,12.80
2019-02-18T11:33:11.918Z,12.80
2019-02-18T11:35:44.330Z,12.90
2019-02-18T11:38:15.049Z,12.80
2019-02-18T11:40:47.332Z,12.80
2019-02-18T11:43:22.759Z,12.80
2019-02-18T11:45:54.292Z,12.70
2019-02-18T11:48:27.093Z,12.60
2019-02-18T11:50:57.212Z,12.60
2019-02-18T11:53:32.281Z,12.60
2019-02-18T11:56:06.849Z,12.60
2019-02-18T11:58:39.752Z,12.70
2019-02-18T12:01:09.683Z,12.80
2019-02-18T12:03:43.833Z,12.90
2019-02-18T12:06:16.079Z,12.80
2019-02-18T12:08:48.826Z,12.70
2019-02-18T12:11:20.901Z,12.70
2019-02-18T12:13:50.995Z,12.80
2019-02-18T12:16:24.191Z,12.80
2019-02-18T12:18:53.560Z,12.90
2019-02-18T12:21:23.086Z,12.90
2019-02-18T12:23:55.044Z,12.90
2019-02-18T12:26:25.970Z,12.90
2019-02-18T12:28:56.770Z,12.90
2019-02-18T12:31:26.395Z,12.90
2019-02-18T12:33:59.071Z,12.90
2019-02-18T12:36:28.732Z,12.90
2019-02-18T12:38:58.740Z,12.90
2019-02-18T12:41:28.058Z,12.90
2019-02-18T12:43:59.749Z,12.90
2019-02-18T12:46:29.978Z,12.90
2019-02-18T12:49:01.827Z,12.90
2019-02-18T12:51:31.879Z,12.90
2019-02-18T12:54:05.063Z,12.90
2019-02-18T12:56:34.311Z,12.90
2019-02-18T12:59:03.807Z,12.90
2019-02-18T13:01:34.002Z,12.90
2019-02-18T13:04:04.232Z,12.90
2019-02-18T13:06:35.847Z,12.90
2019-02-18T13:09:06.694Z,12.90
2019-02-18T13:11:39.894Z,12.90
2019-02-18T13:14:10.474Z,13.00
2019-02-18T13:16:42.352Z,13.00
2019-02-18T13:19:14.024Z,13.10
2019-02-18T13:21:44.053Z,13.10
2019-02-18T13:24:13.810Z,13.10
2019-02-18T13:26:44.130Z,13.30
2019-02-18T13:29:14.173Z,13.30
2019-02-18T13:31:43.333Z,13.30
2019-02-18T13:34:14.009Z,13.20
2019-02-18T13:36:44.682Z,13.20
2019-02-18T13:39:14.688Z,13.20
2019-02-18T13:41:43.742Z,13.20
2019-02-18T13:44:13.721Z,13.20
2019-02-18T13:46:44.865Z,13.20
2019-02-18T13:49:13.935Z,13.20
2019-02-18T13:51:43.334Z,13.10
2019-02-18T13:54:13.791Z,13.10
2019-02-18T13:56:43.721Z,13.10
2019-02-18T13:59:13.197Z,13.00
2019-02-18T14:01:42.675Z,13.10
2019-02-18T14:04:11.883Z,13.00
2019-02-18T14:06:41.664Z,13.00
2019-02-18T14:09:11.171Z,13.00
2019-02-18T14:11:41.136Z,13.00
2019-02-18T14:14:11.555Z,12.90
2019-02-18T14:16:41.258Z,12.90
2019-02-18T14:19:10.701Z,12.90
2019-02-18T14:21:39.811Z,12.90
2019-02-18T14:24:09.047Z,13.00
2019-02-18T14:26:38.469Z,13.10
2019-02-18T14:29:25.918Z,13.40
2019-02-18T14:32:05.949Z,13.50
2019-02-18T14:34:35.458Z,13.70
2019-02-18T14:37:04.826Z,13.60
2019-02-18T14:39:33.940Z,13.60
2019-02-18T14:42:03.066Z,13.50
2019-02-18T14:44:39.124Z,13.40
2019-02-18T14:47:10.742Z,13.30
2019-02-18T14:49:39.832Z,13.20
2019-02-18T14:52:09.442Z,13.10
2019-02-18T14:54:38.877Z,13.00
2019-02-18T14:57:09.478Z,13.00
2019-02-18T14:59:39.300Z,12.90
2019-02-18T15:02:10.406Z,12.80
2019-02-18T15:04:40.166Z,12.80
2019-02-18T15:07:09.820Z,12.80
2019-02-18T15:09:39.749Z,12.80
2019-02-18T15:12:10.359Z,12.70
2019-02-18T15:14:40.068Z,12.60
2019-02-18T15:17:09.161Z,12.60
2019-02-18T15:19:40.837Z,12.50
2019-02-18T15:22:12.898Z,12.50
2019-02-18T15:24:42.899Z,12.40
2019-02-18T15:27:12.879Z,12.40
2019-02-18T15:29:42.566Z,12.30
2019-02-18T15:32:12.429Z,12.30
2019-02-18T15:34:42.455Z,12.30
2019-02-18T15:37:12.335Z,12.20
2019-02-18T15:39:42.366Z,12.10
2019-02-18T15:42:12.001Z,12.10
2019-02-18T15:44:41.681Z,12.10
2019-02-18T15:47:10.863Z,12.00
2019-02-18T15:49:40.603Z,12.00
2019-02-18T15:52:11.409Z,11.90
2019-02-18T15:54:41.810Z,11.80
2019-02-18T15:57:11.829Z,11.80
2019-02-18T15:59:41.575Z,11.70
2019-02-18T16:02:10.925Z,11.70
2019-02-18T16:04:42.110Z,11.60
2019-02-18T16:07:11.782Z,11.60
2019-02-18T16:09:41.367Z,11.50
2019-02-18T16:12:10.381Z,11.50
2019-02-18T16:14:39.570Z,11.50
2019-02-18T16:17:08.776Z,11.40
2019-02-18T16:19:38.475Z,11.30
2019-02-18T16:22:08.104Z,11.30
2019-02-18T16:24:38.091Z,11.20
2019-02-18T16:27:08.241Z,11.10
2019-02-18T16:29:38.058Z,11.10
2019-02-18T16:32:07.505Z,11.00
2019-02-18T16:34:36.943Z,11.00
2019-02-18T16:37:06.675Z,10.90
2019-02-18T16:39:37.578Z,10.90
2019-02-18T16:42:07.200Z,10.80
2019-02-18T16:44:36.352Z,10.70
2019-02-18T16:47:06.121Z,10.60
2019-02-18T16:49:36.632Z,10.50
2019-02-18T16:52:06.683Z,10.50
2019-02-18T16:54:35.818Z,10.40
2019-02-18T16:57:05.166Z,10.40
2019-02-18T16:59:34.371Z,10.30
2019-02-18T17:02:04.490Z,10.20
2019-02-18T17:04:34.097Z,10.20
2019-02-18T17:07:04.457Z,10.10
2019-02-18T17:09:33.976Z,10.10
2019-02-18T17:12:03.159Z,10.10
2019-02-18T17:14:32.262Z,10.00
2019-02-18T17:17:02.802Z,10.10
2019-02-18T17:19:32.053Z,10.00
2019-02-18T17:22:06.420Z,10.00
2019-02-18T17:24:37.042Z,9.90
2019-02-18T17:27:07.337Z,9.90
2019-02-18T17:29:36.410Z,9.90
2019-02-18T17:32:07.673Z,9.80
2019-02-18T17:34:37.689Z,9.80
2019-02-18T17:37:08.678Z,9.70
2019-02-18T17:39:38.243Z,9.70
2019-02-18T17:42:07.431Z,9.70
2019-02-18T17:44:36.923Z,9.70
2019-02-18T17:47:06.650Z,9.60
2019-02-18T17:49:37.587Z,9.50
2019-02-18T17:52:07.396Z,9.50
2019-02-18T17:54:37.366Z,9.40
2019-02-18T17:57:07.078Z,9.40
2019-02-18T17:59:36.819Z,9.40
2019-02-18T18:02:05.990Z,9.30
2019-02-18T18:04:35.942Z,9.30
2019-02-18T18:07:08.500Z,9.30
2019-02-18T18:09:40.145Z,9.20
2019-02-18T18:12:34.118Z,9.20
2019-02-18T18:15:04.268Z,9.10
2019-02-18T18:17:36.152Z,9.00
2019-02-18T18:20:07.019Z,8.90
2019-02-18T18:22:37.415Z,8.90
2019-02-18T18:25:07.199Z,8.90
2019-02-18T18:27:44.816Z,8.90
2019-02-18T18:30:33.865Z,8.90
2019-02-18T18:33:25.081Z,8.90
2019-02-18T18:36:00.179Z,8.80
2019-02-18T18:38:30.168Z,8.70
2019-02-18T18:40:59.315Z,8.70
2019-02-18T18:43:33.752Z,8.70
2019-02-18T18:46:01.473Z,8.70
2019-02-18T18:48:32.197Z,8.70
2019-02-18T18:51:01.774Z,8.60
2019-02-18T18:53:34.291Z,8.60
2019-02-18T18:56:13.486Z,8.50
2019-02-18T18:59:04.283Z,8.50
2019-02-18T19:01:47.973Z,8.40
2019-02-18T19:04:54.355Z,8.30
2019-02-18T19:07:26.667Z,8.30
2019-02-18T19:09:57.295Z,8.20
2019-02-18T19:12:28.564Z,8.10
2019-02-18T19:14:59.688Z,8.10
2019-02-18T19:17:28.953Z,8.10
2019-02-18T19:19:59.078Z,8.00
2019-02-18T19:22:54.455Z,8.00
2019-02-18T19:25:24.007Z,8.00
2019-02-18T19:27:54.800Z,7.90
2019-02-18T19:30:30.500Z,7.90
2019-02-18T19:33:01.323Z,7.90
2019-02-18T19:35:46.988Z,7.90
2019-02-18T19:38:31.017Z,7.80
2019-02-18T19:41:06.115Z,7.80
2019-02-18T19:43:50.050Z,7.80
2019-02-18T19:46:13.409Z,7.80
2019-02-18T19:48:45.779Z,7.80
2019-02-18T19:51:15.337Z,7.80
2019-02-18T19:53:51.870Z,7.80
2019-02-18T19:56:37.836Z,7.80
2019-02-18T19:59:06.450Z,7.90
2019-02-18T20:01:39.826Z,7.90
2019-02-18T20:04:11.260Z,7.90
2019-02-18T20:06:41.873Z,7.90
2019-02-18T20:09:15.835Z,7.90
2019-02-18T20:11:46.522Z,7.80
2019-02-18T20:14:27.687Z,7.80
2019-02-18T20:16:58.031Z,7.80
2019-02-18T20:19:37.157Z,7.80
2019-02-18T20:22:12.450Z,7.70
2019-02-18T20:24:42.127Z,7.70
2019-02-18T20:27:12.351Z,7.60
2019-02-18T20:29:42.034Z,7.50
2019-02-18T20:32:16.579Z,7.50
2019-02-18T20:34:46.692Z,7.40
2019-02-18T20:37:17.039Z,7.40
2019-02-18T20:39:46.945Z,7.30
2019-02-18T20:42:20.185Z,7.30
2019-02-18T20:44:49.478Z,7.20
2019-02-18T20:47:24.380Z,7.10
2019-02-18T20:49:54.717Z,7.10
2019-02-18T20:52:24.204Z,7.10
2019-02-18T20:54:54.335Z,7.10
2019-02-18T20:57:28.482Z,7.00
2019-02-18T20:59:58.068Z,7.00
2019-02-18T21:02:31.554Z,7.00
2019-02-18T21:05:01.286Z,6.90
2019-02-18T21:07:31.642Z,6.90
2019-02-18T21:10:03.136Z,6.90
2019-02-18T21:12:34.814Z,6.90
2019-02-18T21:15:09.180Z,6.90
2019-02-18T21:17:39.449Z,6.90
2019-02-18T21:20:11.308Z,6.90
2019-02-18T21:22:40.966Z,6.80
2019-02-18T21:25:14.676Z,6.80
2019-02-18T21:27:45.399Z,6.70
2019-02-18T21:30:15.527Z,6.70
2019-02-18T21:32:45.787Z,6.70
2019-02-18T21:35:15.698Z,6.70
2019-02-18T21:37:49.826Z,6.60
2019-02-18T21:40:20.819Z,6.50
2019-02-18T21:42:51.467Z,6.50
2019-02-18T21:45:21.136Z,6.40
2019-02-18T21:47:52.070Z,6.40
2019-02-18T21:50:25.333Z,6.40
2019-02-18T21:52:55.225Z,6.30
2019-02-18T21:55:24.767Z,6.20
2019-02-18T21:57:57.025Z,6.20
2019-02-18T22:00:27.040Z,6.10
2019-02-18T22:03:01.299Z,6.10
2019-02-18T22:05:31.611Z,6.10
2019-02-18T22:08:08.622Z,6.10
2019-02-18T22:10:39.509Z,6.10
2019-02-18T22:13:09.320Z,6.10
2019-02-18T22:15:40.911Z,6.00
2019-02-18T22:18:12.628Z,6.00
2019-02-18T22:20:45.001Z,5.90
2019-02-18T22:23:14.392Z,5.90
2019-02-18T22:25:45.671Z,6.00
2019-02-18T22:28:15.111Z,6.00
2019-02-18T22:30:47.533Z,6.00
2019-02-18T22:33:17.405Z,6.00
2019-02-18T22:35:47.134Z,5.90
2019-02-18T22:38:18.998Z,5.90
2019-02-18T22:40:48.228Z,5.90
2019-02-18T22:43:18.292Z,5.80
2019-02-18T22:45:48.961Z,5.70
2019-02-18T22:48:18.337Z,5.70
2019-02-18T22:50:48.861Z,5.70
2019-02-18T22:53:20.119Z,5.70
2019-02-18T22:55:49.329Z,5.70
2019-02-18T22:58:21.846Z,5.70
2019-02-18T23:01:02.145Z,5.80
2019-02-18T23:03:32.105Z,5.80
2019-02-18T23:06:01.506Z,5.80
2019-02-18T23:08:31.160Z,5.70
2019-02-18T23:11:01.486Z,5.70
2019-02-18T23:13:31.029Z,5.70
2019-02-18T23:16:00.703Z,5.70
2019-02-18T23:18:30.146Z,5.60
2019-02-18T23:21:00.737Z,5.60
2019-02-18T23:23:30.642Z,5.60
2019-02-18T23:26:02.086Z,5.60
2019-02-18T23:28:31.240Z,5.50
2019-02-18T23:31:02.547Z,5.50
2019-02-18T23:33:31.791Z,5.40
2019-02-18T23:36:02.097Z,5.50
2019-02-18T23:38:32.042Z,5.50
2019-02-18T23:41:01.238Z,5.50
2019-02-18T23:43:30.352Z,5.50
2019-02-18T23:46:00.276Z,5.50
2019-02-18T23:48:30.980Z,5.50
2019-02-18T23:51:00.677Z,5.40
2019-02-18T23:53:30.094Z,5.40
2019-02-18T23:55:59.801Z,5.40
2019-02-18T23:58:29.197Z,5.40
